Time;durP1;ratioP1;P1;durP2;ratioP2;P2;SDS_P1;SDS_P2;PMS_P1;PMS_P2;Temp;Humidity;BMP_temperature;BMP_pressure;BME280_temperature;BME280_humidity;BME280_pressure;Samples;Min_cycle;Max_cycle;Signal;HPM_P1;HPM_P2
2023/04/16 00:00:31;;;;;;;16.33;8.63;;;8.50;10.20;;;;;;5071805;28;20384;-54
2023/04/16 00:02:57;;;;;;;17.25;8.20;;;8.50;17.30;;;;;;5072330;28;20445;-54
2023/04/16 00:05:22;;;;;;;18.23;8.80;;;8.60;13.10;;;;;;5053139;28;20396;-54
2023/04/16 00:07:50;;;;;;;19.50;8.82;;;8.60;9.90;;;;;;5072388;28;20394;-54
2023/04/16 00:10:16;;;;;;;17.10;8.10;;;8.60;21.00;;;;;;5071092;28;20389;-54
2023/04/16 00:12:42;;;;;;;15.43;7.47;;;8.60;10.70;;;;;;5071834;28;20410;-55
2023/04/16 00:15:07;;;;;;;17.58;8.00;;;8.60;1.50;;;;;;5070756;28;20416;-55
2023/04/16 00:17:33;;;;;;;18.77;8.10;;;8.60;6.70;;;;;;5072237;28;20853;-54
2023/04/16 00:19:58;;;;;;;20.15;9.20;;;8.60;5.60;;;;;;5071983;28;20873;-54
2023/04/16 00:22:24;;;;;;;17.33;8.47;;;8.50;14.90;;;;;;5071449;28;20395;-54
2023/04/16 00:24:50;;;;;;;16.30;7.72;;;8.60;21.90;;;;;;5071875;28;20387;-54
2023/04/16 00:27:15;;;;;;;16.50;8.00;;;8.60;21.40;;;;;;5070775;28;20416;-54
2023/04/16 00:29:41;;;;;;;17.38;7.70;;;8.60;1.00;;;;;;5071606;28;20457;-54
2023/04/16 00:32:07;;;;;;;14.90;7.83;;;8.50;1.00;;;;;;5070872;28;20561;-55
2023/04/16 00:34:32;;;;;;;17.00;8.48;;;8.60;12.40;;;;;;5071259;28;20944;-54
2023/04/16 00:36:58;;;;;;;15.90;7.10;;;8.60;5.60;;;;;;5071876;28;20427;-54
2023/04/16 00:39:24;;;;;;;16.75;7.53;;;8.70;1.00;;;;;;5071111;28;20451;-54
2023/04/16 00:41:50;;;;;;;17.67;8.60;;;8.60;1.00;;;;;;5071263;28;20496;-55
2023/04/16 00:44:15;;;;;;;15.32;7.75;;;8.60;9.80;;;;;;5070668;28;20437;-55
2023/04/16 00:46:41;;;;;;;14.57;6.83;;;9.10;5.40;;;;;;5071786;28;20376;-54
2023/04/16 00:49:08;;;;;;;16.17;8.00;;;8.60;7.40;;;;;;5070470;28;20860;-55
2023/04/16 00:51:34;;;;;;;17.38;8.20;;;8.50;18.40;;;;;;5070327;28;20388;-54
2023/04/16 00:54:01;;;;;;;15.65;7.60;;;9.60;10.70;;;;;;5071308;28;20376;-54
2023/04/16 00:56:27;;;;;;;15.73;7.40;;;8.70;1.00;;;;;;5070181;28;20422;-54
2023/04/16 00:58:55;;;;;;;14.93;7.70;;;8.60;1.00;;;;;;5070070;28;20419;-54
2023/04/16 01:01:20;;;;;;;16.90;7.40;;;8.60;3.00;;;;;;5070372;28;20473;-55
2023/04/16 01:03:48;;;;;;;18.37;8.27;;;10.20;6.80;;;;;;5070957;28;20791;-54
2023/04/16 01:06:15;;;;;;;14.80;7.60;;;8.60;11.30;;;;;;5070295;28;20372;-55
2023/04/16 01:08:41;;;;;;;17.95;7.68;;;8.60;1.00;;;;;;5071109;28;20414;-55
2023/04/16 01:11:06;;;;;;;19.33;8.23;;;8.60;1.00;;;;;;5070061;28;20426;-55
2023/04/16 01:13:32;;;;;;;19.73;8.43;;;8.60;3.30;;;;;;5070783;28;20508;-55
2023/04/16 01:15:59;;;;;;;15.55;7.00;;;8.60;10.10;;;;;;5070720;28;20885;-55
2023/04/16 01:18:26;;;;;;;15.45;7.10;;;8.50;9.80;;;;;;5070304;28;20434;-55
2023/04/16 01:20:51;;;;;;;14.70;6.50;;;8.50;16.30;;;;;;5070662;28;20367;-55
2023/04/16 01:23:18;;;;;;;14.27;6.43;;;8.50;18.60;;;;;;5070046;28;20714;-54
2023/04/16 01:25:44;;;;;;;12.82;6.38;;;8.50;12.10;;;;;;5070604;28;20494;-54
2023/04/16 01:28:10;;;;;;;15.10;7.30;;;8.40;22.30;;;;;;5069218;28;20392;-55
2023/04/16 01:30:36;;;;;;;12.73;6.32;;;8.50;32.80;;;;;;5070718;28;20383;-54
2023/04/16 01:33:01;;;;;;;15.67;6.80;;;8.50;4.10;;;;;;5070121;28;20710;-55
2023/04/16 01:35:27;;;;;;;14.05;6.72;;;8.50;17.00;;;;;;5070028;28;20869;-54
2023/04/16 01:37:53;;;;;;;14.83;7.30;;;8.50;16.40;;;;;;5070349;28;20387;-54
2023/04/16 01:40:19;;;;;;;13.63;6.20;;;10.20;30.00;;;;;;5069602;28;20908;-54
2023/04/16 01:42:44;;;;;;;12.00;5.95;;;8.40;13.20;;;;;;5070561;28;20382;-54
2023/04/16 01:45:10;;;;;;;12.50;6.37;;;8.30;39.70;;;;;;5069558;28;20387;-55
2023/04/16 01:47:36;;;;;;;15.88;7.47;;;8.40;36.40;;;;;;5070328;28;20386;-55
2023/04/16 01:50:03;;;;;;;13.10;6.30;;;9.60;52.20;;;;;;5069839;28;20437;-55
2023/04/16 01:52:29;;;;;;;13.50;6.63;;;8.50;33.50;;;;;;5070083;28;20415;-55
2023/04/16 01:54:54;;;;;;;13.68;6.10;;;8.50;29.70;;;;;;5069853;28;20451;-55
2023/04/16 01:57:20;;;;;;;14.17;6.20;;;8.40;34.30;;;;;;5069392;28;20449;-55
2023/04/16 01:59:45;;;;;;;14.88;6.68;;;8.40;30.10;;;;;;5070207;28;20853;-55
2023/04/16 02:02:14;;;;;;;16.00;7.10;;;9.90;43.30;;;;;;5069078;28;20407;-55
2023/04/16 02:04:41;;;;;;;13.77;6.65;;;9.20;58.30;;;;;;5070098;28;20420;-55
2023/04/16 02:07:07;;;;;;;15.90;7.55;;;8.50;29.10;;;;;;5068529;28;20857;-55
2023/04/16 02:09:34;;;;;;;16.30;7.30;;;8.50;46.90;;;;;;5069672;28;21160;-55
2023/04/16 02:12:02;;;;;;;15.68;7.20;;;9.30;34.00;;;;;;5068914;28;20659;-55
2023/04/16 02:14:28;;;;;;;15.10;6.82;;;8.80;26.50;;;;;;5069104;28;20409;-55
2023/04/16 02:16:53;;;;;;;14.55;6.80;;;8.50;22.60;;;;;;5069165;28;20392;-55
2023/04/16 02:19:19;;;;;;;16.42;6.50;;;8.50;37.40;;;;;;5069123;28;20805;-55
2023/04/16 02:21:45;;;;;;;16.50;7.30;;;8.50;19.40;;;;;;5069204;28;20395;-55
2023/04/16 02:24:10;;;;;;;15.90;8.07;;;8.40;17.50;;;;;;5068801;28;20857;-55
2023/04/16 02:26:36;;;;;;;16.63;7.87;;;9.20;38.10;;;;;;5069047;28;20426;-55
2023/04/16 02:29:02;;;;;;;19.10;8.48;;;8.50;30.10;;;;;;5068835;28;20411;-55
2023/04/16 02:31:28;;;;;;;16.77;7.85;;;8.40;45.50;;;;;;5068842;28;20392;-55
2023/04/16 02:33:54;;;;;;;18.23;7.78;;;8.40;41.00;;;;;;5069260;28;20883;-55
2023/04/16 02:36:19;;;;;;;18.33;7.73;;;8.30;52.30;;;;;;5068250;28;20451;-55
2023/04/16 02:38:45;;;;;;;15.80;6.53;;;8.20;57.40;;;;;;5068738;28;20888;-55
2023/04/16 02:41:11;;;;;;;15.47;7.10;;;8.20;84.40;;;;;;5068343;28;20840;-55
2023/04/16 02:43:37;;;;;;;17.57;8.17;;;8.20;76.80;;;;;;5069058;28;20395;-55
2023/04/16 02:46:03;;;;;;;14.80;6.97;;;8.30;67.30;;;;;;5068875;28;20391;-55
2023/04/16 02:48:28;;;;;;;16.90;8.07;;;8.20;58.00;;;;;;5068688;28;20391;-55
2023/04/16 02:50:54;;;;;;;15.65;7.82;;;9.10;86.80;;;;;;5067749;28;20451;-55
2023/04/16 02:53:20;;;;;;;18.10;8.35;;;8.90;55.30;;;;;;5068186;28;20400;-55
2023/04/16 02:55:53;;;;;;;14.70;7.27;;;8.40;59.20;;;;;;5068600;28;20880;-55
2023/04/16 02:58:20;;;;;;;17.20;8.07;;;8.40;47.10;;;;;;5065359;28;20828;-55
2023/04/16 03:00:46;;;;;;;15.75;7.70;;;8.30;40.40;;;;;;5069157;28;20433;-55
2023/04/16 03:03:12;;;;;;;17.92;7.45;;;8.40;65.80;;;;;;5068153;28;20400;-55
2023/04/16 03:05:38;;;;;;;17.05;6.80;;;8.40;56.30;;;;;;5063903;28;20399;-55
2023/04/16 03:08:03;;;;;;;17.37;7.70;;;8.50;37.30;;;;;;5068591;28;20404;-55
2023/04/16 03:10:29;;;;;;;22.17;8.35;;;8.50;47.10;;;;;;5068983;28;20529;-55
2023/04/16 03:12:55;;;;;;;16.08;7.07;;;9.20;46.50;;;;;;5068705;28;20380;-55
2023/04/16 03:15:20;;;;;;;15.07;7.00;;;9.30;19.30;;;;;;5067742;28;20495;-55
2023/04/16 03:17:46;;;;;;;17.30;8.00;;;8.20;52.90;;;;;;5069100;28;20387;-55
2023/04/16 03:20:13;;;;;;;16.03;6.80;;;8.30;72.00;;;;;;5069893;28;20388;-55
2023/04/16 03:22:39;;;;;;;18.10;7.80;;;8.40;48.50;;;;;;5072594;28;20434;-55
2023/04/16 03:25:06;;;;;;;18.00;7.40;;;8.40;33.70;;;;;;5072684;28;20433;-55
2023/04/16 03:27:32;;;;;;;18.10;7.17;;;8.50;43.50;;;;;;5072888;28;20402;-55
2023/04/16 03:29:57;;;;;;;14.85;6.43;;;8.50;32.80;;;;;;5072808;28;20415;-55
2023/04/16 03:32:23;;;;;;;14.70;6.90;;;8.40;35.40;;;;;;5071698;28;20428;-55
2023/04/16 03:34:48;;;;;;;20.03;8.00;;;8.40;29.60;;;;;;5072480;28;20485;-55
2023/04/16 03:37:14;;;;;;;15.27;7.30;;;8.40;36.80;;;;;;5072288;28;20380;-55
2023/04/16 03:39:40;;;;;;;17.33;7.80;;;8.40;28.80;;;;;;5072712;28;20843;-55
2023/04/16 03:42:05;;;;;;;19.15;8.00;;;8.50;27.70;;;;;;5071827;28;20842;-56
2023/04/16 03:44:31;;;;;;;16.77;7.97;;;8.50;33.20;;;;;;5072553;28;20729;-55
2023/04/16 03:46:57;;;;;;;17.55;8.45;;;9.00;37.60;;;;;;5072387;28;20410;-55
2023/04/16 03:49:22;;;;;;;15.33;7.17;;;8.40;40.10;;;;;;5071636;28;20987;-55
2023/04/16 03:51:48;;;;;;;15.10;6.95;;;8.30;34.00;;;;;;5072003;28;20473;-55
2023/04/16 03:54:14;;;;;;;20.43;8.20;;;8.30;39.20;;;;;;5071026;28;20887;-55
2023/04/16 03:56:40;;;;;;;18.48;8.40;;;8.20;66.20;;;;;;5071786;28;20423;-55
2023/04/16 03:59:06;;;;;;;18.48;8.32;;;7.60;60.30;;;;;;5070886;28;20407;-55
2023/04/16 04:01:31;;;;;;;18.03;8.13;;;8.30;50.10;;;;;;5072096;28;20413;-55
2023/04/16 04:03:57;;;;;;;18.48;8.15;;;10.00;23.30;;;;;;5071726;28;20395;-55
2023/04/16 04:06:23;;;;;;;18.27;7.37;;;8.40;38.80;;;;;;5071129;28;20391;-55
2023/04/16 04:08:48;;;;;;;18.88;8.32;;;8.30;29.50;;;;;;5071547;28;21051;-55
2023/04/16 04:11:14;;;;;;;18.73;8.83;;;8.30;45.70;;;;;;5070970;28;20401;-55
2023/04/16 04:13:39;;;;;;;17.33;7.70;;;8.20;59.00;;;;;;5071214;28;20536;-55
2023/04/16 04:16:05;;;;;;;22.10;8.53;;;8.30;48.90;;;;;;5052773;28;20412;-56
2023/04/16 04:18:31;;;;;;;13.10;5.90;;;8.30;52.80;;;;;;5071552;28;20399;-55
2023/04/16 04:20:57;;;;;;;15.68;7.60;;;8.30;48.00;;;;;;5071128;28;20750;-55
2023/04/16 04:23:23;;;;;;;21.10;8.53;;;8.30;55.00;;;;;;5070740;28;21022;-55
2023/04/16 04:25:48;;;;;;;16.13;7.18;;;8.30;56.90;;;;;;5071088;28;20412;-55
2023/04/16 04:28:14;;;;;;;18.60;7.93;;;8.30;53.30;;;;;;5070710;28;21201;-55
2023/04/16 04:30:40;;;;;;;17.83;8.03;;;9.50;49.60;;;;;;5070234;28;20391;-55
2023/04/16 04:33:06;;;;;;;20.27;8.33;;;8.40;50.10;;;;;;5070772;28;20423;-55
2023/04/16 04:35:32;;;;;;;15.80;7.45;;;8.50;45.80;;;;;;5071139;28;20443;-55
2023/04/16 04:37:57;;;;;;;17.33;8.60;;;8.50;24.90;;;;;;5071012;28;20403;-55
2023/04/16 04:40:23;;;;;;;24.08;8.95;;;8.50;28.30;;;;;;5070320;28;20387;-55
2023/04/16 04:42:49;;;;;;;17.53;7.37;;;8.50;24.20;;;;;;5053686;28;20402;-55
2023/04/16 04:45:14;;;;;;;17.77;7.50;;;8.50;20.40;;;;;;5067346;28;20394;-55
2023/04/16 04:47:40;;;;;;;19.20;8.50;;;8.50;18.40;;;;;;5070920;28;20406;-55
2023/04/16 04:50:06;;;;;;;19.30;8.40;;;8.50;18.30;;;;;;5070445;28;20884;-55
2023/04/16 04:52:32;;;;;;;19.45;8.35;;;8.60;16.80;;;;;;5070371;28;20399;-55
2023/04/16 04:54:57;;;;;;;18.37;8.07;;;8.60;10.80;;;;;;5070660;28;20477;-55
2023/04/16 04:57:23;;;;;;;19.65;7.63;;;8.40;23.80;;;;;;5070496;28;20479;-55
2023/04/16 04:59:48;;;;;;;20.00;8.43;;;8.40;22.70;;;;;;5070183;28;20726;-55
2023/04/16 05:02:14;;;;;;;21.27;7.78;;;8.40;12.70;;;;;;5069484;28;20490;-55
2023/04/16 05:04:40;;;;;;;20.20;7.93;;;9.00;23.10;;;;;;5069936;28;20486;-55
2023/04/16 05:07:06;;;;;;;17.63;7.97;;;8.40;24.10;;;;;;5070293;28;20421;-56
2023/04/16 05:09:31;;;;;;;16.47;7.23;;;8.30;10.60;;;;;;5070156;28;20399;-55
2023/04/16 05:11:57;;;;;;;21.90;8.85;;;8.30;29.00;;;;;;5070521;28;20410;-55
2023/04/16 05:14:23;;;;;;;20.80;8.05;;;8.30;38.70;;;;;;5069723;28;20396;-55
2023/04/16 05:16:48;;;;;;;18.10;7.93;;;8.30;51.00;;;;;;5070523;28;20394;-55
2023/04/16 05:19:16;;;;;;;24.20;10.00;;;8.20;56.40;;;;;;5069898;28;20483;-55
2023/04/16 05:21:41;;;;;;;24.75;9.70;;;8.30;56.20;;;;;;5070478;28;20380;-55
2023/04/16 05:24:07;;;;;;;25.70;11.13;;;9.10;55.20;;;;;;5069994;28;20391;-55
2023/04/16 05:26:32;;;;;;;26.10;9.83;;;8.40;56.40;;;;;;5070325;28;20387;-55
2023/04/16 05:28:58;;;;;;;26.13;10.82;;;8.50;51.80;;;;;;5070148;28;20510;-55
2023/04/16 05:31:24;;;;;;;25.60;10.70;;;8.60;36.70;;;;;;5069413;28;21191;-55
2023/04/16 05:33:49;;;;;;;23.75;9.90;;;8.50;27.50;;;;;;5070346;28;20392;-55
2023/04/16 05:36:17;;;;;;;23.60;10.43;;;8.40;35.80;;;;;;5068570;28;20471;-55
2023/04/16 05:38:42;;;;;;;28.30;10.70;;;8.40;50.40;;;;;;5070157;28;20411;-55
2023/04/16 05:41:08;;;;;;;26.03;11.77;;;8.40;36.20;;;;;;5069355;28;20405;-55
2023/04/16 05:43:33;;;;;;;26.87;11.77;;;8.50;19.10;;;;;;5069869;28;20376;-55
2023/04/16 05:45:59;;;;;;;24.60;10.73;;;8.50;39.20;;;;;;5070405;28;20864;-55
2023/04/16 05:48:24;;;;;;;32.83;12.57;;;9.00;40.00;;;;;;5068835;28;20392;-55
2023/04/16 05:50:50;;;;;;;27.13;12.07;;;8.30;67.10;;;;;;5069727;28;20891;-55
2023/04/16 05:53:17;;;;;;;29.73;11.73;;;8.60;71.90;;;;;;5067939;28;20414;-55
2023/04/16 05:55:43;;;;;;;25.40;11.45;;;8.20;88.60;;;;;;5066300;28;20452;-55
2023/04/16 05:58:09;;;;;;;27.98;12.27;;;8.90;90.40;;;;;;5068962;28;20799;-55
2023/04/16 06:00:34;;;;;;;29.43;12.40;;;8.20;99.90;;;;;;5069778;28;20878;-55
2023/04/16 06:03:01;;;;;;;27.45;11.18;;;8.40;95.00;;;;;;5069602;28;20502;-55
2023/04/16 06:05:26;;;;;;;27.13;12.10;;;8.40;55.30;;;;;;5061471;28;20403;-55
2023/04/16 06:07:52;;;;;;;29.02;13.23;;;8.50;56.40;;;;;;5070304;28;20413;-55
2023/04/16 06:10:18;;;;;;;32.23;11.60;;;8.50;45.50;;;;;;5068470;28;20388;-55
2023/04/16 06:12:43;;;;;;;33.70;12.47;;;8.50;30.30;;;;;;5069332;28;20474;-55
2023/04/16 06:15:09;;;;;;;29.85;11.55;;;8.40;48.90;;;;;;5068536;28;20569;-55
2023/04/16 06:17:35;;;;;;;25.77;13.00;;;8.30;65.10;;;;;;5069380;28;20508;-55
2023/04/16 06:20:01;;;;;;;26.83;11.93;;;8.30;50.60;;;;;;5069256;28;20869;-55
2023/04/16 06:22:26;;;;;;;27.98;12.43;;;8.80;70.90;;;;;;5068563;28;21078;-55
2023/04/16 06:24:52;;;;;;;30.57;12.77;;;8.20;83.30;;;;;;5069225;28;20419;-55
2023/04/16 06:27:18;;;;;;;36.45;13.90;;;8.30;82.40;;;;;;5068194;28;20427;-55
2023/04/16 06:29:43;;;;;;;30.70;11.40;;;8.30;54.20;;;;;;5069212;28;20536;-55
2023/04/16 06:32:09;;;;;;;32.73;13.83;;;9.00;64.20;;;;;;5068051;28;20392;-55
2023/04/16 06:34:36;;;;;;;26.35;11.98;;;8.30;84.90;;;;;;5068945;28;20450;-55
2023/04/16 06:37:01;;;;;;;27.77;11.98;;;7.30;61.70;;;;;;5068540;28;20904;-55
2023/04/16 06:39:27;;;;;;;28.27;11.50;;;8.40;68.70;;;;;;5068583;28;20426;-55
2023/04/16 06:41:52;;;;;;;30.75;12.85;;;8.30;48.40;;;;;;5069171;28;20747;-55
2023/04/16 06:44:18;;;;;;;33.37;13.53;;;8.40;59.70;;;;;;5068198;28;20384;-55
2023/04/16 06:46:43;;;;;;;24.00;10.40;;;8.50;51.90;;;;;;5068693;28;20884;-55
2023/04/16 06:49:09;;;;;;;27.27;12.47;;;8.40;45.50;;;;;;5068452;28;20483;-55
2023/04/16 06:51:35;;;;;;;25.30;10.77;;;8.50;29.40;;;;;;5068200;28;20388;-55
2023/04/16 06:54:01;;;;;;;29.52;13.40;;;8.40;38.10;;;;;;5071102;28;20876;-55
2023/04/16 06:56:26;;;;;;;28.50;12.88;;;8.40;55.80;;;;;;5063909;28;20501;-55
2023/04/16 06:58:52;;;;;;;25.83;11.20;;;8.60;32.10;;;;;;5072928;28;20439;-55
2023/04/16 07:01:18;;;;;;;33.17;12.40;;;8.40;28.30;;;;;;5070791;28;20396;-55
2023/04/16 07:03:43;;;;;;;28.60;11.87;;;8.50;45.30;;;;;;5066287;28;20751;-55
2023/04/16 07:06:09;;;;;;;26.08;10.65;;;8.80;28.90;;;;;;5072002;28;20396;-55
2023/04/16 07:08:35;;;;;;;24.27;11.73;;;8.70;4.50;;;;;;5072967;28;20459;-55
2023/04/16 07:11:01;;;;;;;26.27;11.90;;;8.70;9.50;;;;;;5072908;28;20445;-55
2023/04/16 07:13:26;;;;;;;26.33;11.15;;;8.70;17.90;;;;;;5071861;28;20448;-55
2023/04/16 07:15:52;;;;;;;26.13;11.50;;;9.70;1.00;;;;;;5067795;28;20475;-55
2023/04/16 07:18:18;;;;;;;27.33;12.45;;;10.00;1.00;;;;;;5068680;28;20434;-55
2023/04/16 07:20:44;;;;;;;33.80;12.52;;;8.70;1.00;;;;;;5072662;28;20880;-55
2023/04/16 07:23:10;;;;;;;26.90;11.93;;;8.80;6.70;;;;;;5072113;28;20391;-55
2023/04/16 07:25:35;;;;;;;26.70;10.43;;;8.60;2.10;;;;;;5068316;28;20391;-55
2023/04/16 07:28:02;;;;;;;29.80;12.20;;;8.60;2.90;;;;;;5069655;28;20865;-55
2023/04/16 07:30:32;;;;;;;26.20;10.55;;;8.70;15.00;;;;;;5071399;28;20388;-55
2023/04/16 07:33:00;;;;;;;29.50;12.33;;;8.80;10.70;;;;;;5067229;28;20407;-55
2023/04/16 07:35:26;;;;;;;31.93;11.57;;;8.80;2.00;;;;;;5069726;28;20458;-55
2023/04/16 07:37:51;;;;;;;27.23;10.40;;;8.80;1.00;;;;;;5064393;28;20403;-55
2023/04/16 07:40:17;;;;;;;32.65;13.65;;;8.90;1.00;;;;;;5057608;28;20495;-55
2023/04/16 07:42:43;;;;;;;25.20;11.47;;;8.90;1.00;;;;;;5052333;28;20392;-55
2023/04/16 07:45:09;;;;;;;23.65;11.00;;;8.90;1.00;;;;;;5067645;28;20474;-55
2023/04/16 07:47:35;;;;;;;22.98;10.05;;;9.00;1.00;;;;;;5072198;28;20387;-55
2023/04/16 07:50:01;;;;;;;24.98;10.70;;;9.10;1.00;;;;;;5084871;28;20405;-55
2023/04/16 07:52:27;;;;;;;20.80;9.23;;;9.10;1.00;;;;;;5068954;28;20404;-55
2023/04/16 07:54:52;;;;;;;23.98;9.27;;;9.10;1.00;;;;;;5071683;28;20412;-55
2023/04/16 07:57:18;;;;;;;27.23;9.75;;;8.90;1.00;;;;;;5072161;28;20390;-55
2023/04/16 07:59:44;;;;;;;20.75;10.07;;;8.90;1.00;;;;;;5073346;28;20482;-55
2023/04/16 08:02:13;;;;;;;20.30;9.35;;;8.90;1.00;;;;;;5070777;28;20757;-55
2023/04/16 08:04:40;;;;;;;22.70;9.30;;;8.80;1.00;;;;;;5070486;28;20400;-55
2023/04/16 08:07:06;;;;;;;21.55;9.23;;;8.80;1.00;;;;;;5070781;28;20420;-55
2023/04/16 08:09:31;;;;;;;23.50;9.65;;;8.90;1.00;;;;;;5071329;28;20485;-55
2023/04/16 08:11:59;;;;;;;23.23;10.13;;;9.00;1.00;;;;;;5071403;28;20386;-55
2023/04/16 08:14:25;;;;;;;21.77;9.40;;;9.00;1.00;;;;;;5071123;28;20379;-55
2023/04/16 08:16:51;;;;;;;22.02;9.68;;;9.00;1.00;;;;;;5071827;28;20423;-55
2023/04/16 08:19:16;;;;;;;18.50;8.60;;;9.10;1.00;;;;;;5070755;28;20390;-55
2023/04/16 08:21:42;;;;;;;20.45;9.48;;;9.00;1.00;;;;;;5071695;28;20386;-55
2023/04/16 08:24:08;;;;;;;27.15;10.57;;;9.00;1.00;;;;;;5071425;28;20853;-55
2023/04/16 08:26:33;;;;;;;34.50;14.40;;;9.10;1.00;;;;;;5070516;28;20452;-55
2023/04/16 08:28:59;;;;;;;23.97;10.10;;;9.00;1.00;;;;;;5073503;28;20410;-55
2023/04/16 08:31:25;;;;;;;28.13;11.70;;;9.10;1.00;;;;;;5070769;28;20395;-55
2023/04/16 08:33:50;;;;;;;27.53;13.43;;;9.10;1.00;;;;;;5077685;28;20470;-55
2023/04/16 08:36:16;;;;;;;21.27;9.82;;;9.10;1.00;;;;;;5079082;28;20412;-55
2023/04/16 08:38:41;;;;;;;25.20;11.10;;;9.10;1.00;;;;;;5082753;28;20439;-55
2023/04/16 08:41:11;;;;;;;20.15;9.30;;;9.20;1.00;;;;;;5091252;28;20374;-55
2023/04/16 08:43:41;;;;;;;21.80;9.30;;;9.20;1.00;;;;;;5091383;28;20432;-56
2023/04/16 08:46:07;;;;;;;21.63;10.00;;;9.40;1.00;;;;;;5087264;28;20423;-55
2023/04/16 08:48:34;;;;;;;19.63;8.85;;;9.30;1.00;;;;;;5071225;28;20861;-56
2023/04/16 08:51:00;;;;;;;18.63;9.30;;;9.30;1.00;;;;;;5071241;28;20394;-55
2023/04/16 08:53:39;;;;;;;24.40;10.85;;;9.40;1.00;;;;;;5070481;28;20400;-55
2023/04/16 08:56:08;;;;;;;24.60;10.40;;;9.40;1.00;;;;;;5069386;28;20407;-55
2023/04/16 08:58:36;;;;;;;24.50;10.47;;;9.40;1.00;;;;;;5069353;28;20399;-55
2023/04/16 09:01:03;;;;;;;22.17;10.80;;;9.40;1.00;;;;;;5070382;28;20400;-52
2023/04/16 09:03:32;;;;;;;23.17;10.50;;;9.50;1.00;;;;;;5066742;28;21075;-52
2023/04/16 09:05:58;;;;;;;22.15;10.23;;;9.40;1.00;;;;;;5063207;28;20402;-52
2023/04/16 09:08:25;;;;;;;24.48;10.77;;;9.50;1.00;;;;;;5062428;28;20430;-53
2023/04/16 09:10:51;;;;;;;24.95;10.43;;;9.70;1.00;;;;;;5063521;28;20458;-53
2023/04/16 09:13:19;;;;;;;22.00;10.27;;;9.80;1.00;;;;;;5064405;28;20446;-55
2023/04/16 09:15:45;;;;;;;21.50;9.73;;;9.80;1.00;;;;;;5082404;28;20875;-55
2023/04/16 09:18:11;;;;;;;24.40;10.65;;;9.60;1.00;;;;;;5070917;28;20380;-56
2023/04/16 09:20:37;;;;;;;19.87;8.77;;;9.80;1.00;;;;;;5070572;28;20870;-52
2023/04/16 09:23:03;;;;;;;21.15;9.88;;;9.60;1.00;;;;;;5070323;28;20402;-55
2023/04/16 09:25:36;;;;;;;23.40;10.17;;;9.60;1.00;;;;;;5058747;28;20900;-53
2023/04/16 09:28:01;;;;;;;21.65;10.00;;;9.60;1.00;;;;;;5069343;28;20403;-52
2023/04/16 09:30:27;;;;;;;23.37;10.07;;;10.50;1.00;;;;;;5069446;28;20745;-53
2023/04/16 09:33:11;;;;;;;24.15;9.93;;;9.60;1.00;;;;;;5064919;28;20512;-53
2023/04/16 09:35:51;;;;;;;21.50;9.95;;;9.60;1.00;;;;;;5067599;28;20500;-52
2023/04/16 09:38:17;;;;;;;20.08;8.48;;;9.50;1.00;;;;;;5066806;28;20379;-55
2023/04/16 09:40:42;;;;;;;18.33;8.82;;;9.60;1.00;;;;;;5069777;28;20440;-55
2023/04/16 09:43:18;;;;;;;19.92;9.10;;;9.50;1.00;;;;;;5069791;28;20845;-55
2023/04/16 09:45:50;;;;;;;21.38;9.38;;;9.60;1.00;;;;;;5069751;28;20395;-55
2023/04/16 09:48:26;;;;;;;21.67;8.73;;;9.80;1.00;;;;;;5066555;28;20388;-55
2023/04/16 09:50:52;;;;;;;21.48;9.38;;;9.70;1.00;;;;;;5069485;28;20757;-53
2023/04/16 09:53:28;;;;;;;23.20;10.40;;;9.80;1.00;;;;;;5068901;28;20376;-53
2023/04/16 09:56:01;;;;;;;23.48;9.88;;;9.80;1.00;;;;;;5066587;28;20408;-53
2023/04/16 09:58:27;;;;;;;22.65;10.40;;;9.70;1.00;;;;;;5068409;28;20429;-53
2023/04/16 10:01:12;;;;;;;24.67;10.13;;;9.80;1.00;;;;;;5069425;28;20448;-52
2023/04/16 10:03:38;;;;;;;23.10;10.50;;;9.80;1.00;;;;;;5067209;28;20383;-55
2023/04/16 10:06:18;;;;;;;23.50;9.70;;;10.00;1.00;;;;;;5069323;28;20410;-55
2023/04/16 10:08:48;;;;;;;27.70;12.50;;;10.20;1.00;;;;;;5069325;28;20872;-55
2023/04/16 10:11:18;;;;;;;19.98;9.20;;;10.20;1.00;;;;;;5068976;28;20388;-55
2023/04/16 10:13:43;;;;;;;24.00;10.02;;;10.00;1.00;;;;;;5069742;28;20387;-55
2023/04/16 10:16:09;;;;;;;23.10;10.00;;;9.90;1.00;;;;;;5064788;28;20831;-55
2023/04/16 10:18:40;;;;;;;21.00;10.40;;;9.70;1.00;;;;;;5068302;28;20440;-55
2023/04/16 10:21:06;;;;;;;19.45;9.32;;;9.50;1.00;;;;;;5069883;28;20464;-55
2023/04/16 10:23:33;;;;;;;23.50;10.40;;;9.60;1.00;;;;;;5068848;28;20436;-55
2023/04/16 10:26:00;;;;;;;22.92;9.40;;;9.70;1.00;;;;;;5070658;28;20468;-55
2023/04/16 10:28:27;;;;;;;22.23;10.10;;;9.70;1.00;;;;;;5067928;28;20399;-55
2023/04/16 10:30:55;;;;;;;24.20;9.70;;;9.70;1.00;;;;;;5051509;28;20747;-55
2023/04/16 10:33:43;;;;;;;20.70;9.15;;;11.10;1.00;;;;;;5068801;28;20388;-55
2023/04/16 10:36:11;;;;;;;17.00;7.50;;;9.90;1.00;;;;;;5069545;28;20407;-55
2023/04/16 10:38:39;;;;;;;20.45;8.43;;;9.80;1.00;;;;;;5067317;28;20423;-55
2023/04/16 10:41:05;;;;;;;21.58;8.25;;;9.80;1.00;;;;;;5069309;28;20387;-56
2023/04/16 10:43:37;;;;;;;19.55;7.88;;;9.90;1.00;;;;;;5068920;28;20375;-55
2023/04/16 10:46:37;;;;;;;17.73;8.52;;;10.10;1.00;;;;;;5070987;28;20519;-55
2023/04/16 10:49:14;;;;;;;17.98;8.13;;;10.10;1.00;;;;;;5013332;28;20438;-55
2023/04/16 10:51:40;;;;;;;17.37;8.17;;;9.80;1.00;;;;;;5069040;28;20821;-55
2023/04/16 10:54:13;;;;;;;18.90;8.02;;;9.90;1.00;;;;;;5068795;28;20615;-55
2023/04/16 10:56:39;;;;;;;19.05;8.60;;;9.10;1.00;;;;;;5068975;28;20888;-55
2023/04/16 10:59:06;;;;;;;18.15;7.95;;;9.90;1.00;;;;;;5067665;28;20494;-53
2023/04/16 11:01:34;;;;;;;19.25;8.73;;;9.90;1.00;;;;;;5066705;28;20460;-53
2023/04/16 11:04:20;;;;;;;18.23;8.20;;;9.90;1.00;;;;;;5067835;28;20402;-53
2023/04/16 11:07:14;;;;;;;19.52;8.60;;;9.90;1.00;;;;;;5067927;28;20753;-55
2023/04/16 11:09:44;;;;;;;20.58;7.25;;;10.10;1.00;;;;;;5067271;28;20437;-55
2023/04/16 11:12:12;;;;;;;15.43;6.45;;;10.20;1.00;;;;;;5065607;28;20396;-56
2023/04/16 11:14:40;;;;;;;17.33;7.00;;;10.00;1.00;;;;;;5068068;28;20892;-55
2023/04/16 11:17:06;;;;;;;14.38;6.60;;;9.90;1.00;;;;;;5068706;28;20483;-56
2023/04/16 11:19:34;;;;;;;17.13;7.00;;;9.90;1.00;;;;;;5068143;28;21017;-56
2023/04/16 11:22:01;;;;;;;19.85;8.10;;;9.80;1.00;;;;;;5068014;28;20383;-55
2023/04/16 11:24:32;;;;;;;13.93;6.50;;;9.90;1.00;;;;;;5065840;28;20899;-53
2023/04/16 11:26:58;;;;;;;16.10;7.00;;;10.00;1.00;;;;;;5065078;28;20926;-53
2023/04/16 11:29:24;;;;;;;13.77;6.95;;;9.90;1.00;;;;;;5067304;28;20948;-53
2023/04/16 11:31:53;;;;;;;17.13;6.40;;;9.90;1.00;;;;;;5068054;28;20407;-53
2023/04/16 11:34:20;;;;;;;13.38;6.80;;;9.90;1.00;;;;;;5067840;28;20452;-53
2023/04/16 11:36:47;;;;;;;13.10;5.55;;;9.80;1.00;;;;;;5067647;28;20508;-53
2023/04/16 11:39:12;;;;;;;15.32;5.65;;;9.80;1.00;;;;;;5061976;28;20384;-54
2023/04/16 11:41:46;;;;;;;13.73;6.60;;;9.70;1.00;;;;;;5070440;28;20399;-53
2023/04/16 11:44:21;;;;;;;14.65;6.03;;;9.50;1.00;;;;;;5068691;28;20408;-54
2023/04/16 11:46:48;;;;;;;14.65;6.70;;;9.60;1.00;;;;;;5071665;28;20391;-54
2023/04/16 11:49:16;;;;;;;15.25;6.75;;;9.70;1.00;;;;;;5061574;28;20463;-54
2023/04/16 11:51:43;;;;;;;15.93;7.20;;;10.40;1.00;;;;;;5069366;28;20407;-53
2023/04/16 11:54:09;;;;;;;13.33;5.67;;;10.10;1.00;;;;;;5072067;28;20384;-54
2023/04/16 11:56:36;;;;;;;14.18;6.03;;;9.90;1.00;;;;;;5071242;28;20422;-53
2023/04/16 11:59:19;;;;;;;13.05;5.10;;;9.90;1.00;;;;;;5071367;28;20407;-53
2023/04/16 12:01:50;;;;;;;12.15;5.47;;;9.90;1.00;;;;;;5053550;28;20823;-56
2023/04/16 12:04:19;;;;;;;11.68;4.88;;;10.00;1.00;;;;;;5067430;28;20473;-54
2023/04/16 12:07:10;;;;;;;13.18;5.20;;;9.90;1.00;;;;;;5069496;28;20938;-53
2023/04/16 12:09:37;;;;;;;13.23;4.85;;;9.90;1.00;;;;;;5070479;28;20396;-53
2023/04/16 12:12:04;;;;;;;10.02;3.95;;;9.80;1.00;;;;;;5071385;28;20896;-54
2023/04/16 12:14:30;;;;;;;10.93;4.55;;;9.60;1.00;;;;;;5070862;28;20383;-54
2023/04/16 12:17:15;;;;;;;11.45;4.60;;;9.70;1.00;;;;;;5071933;28;20744;-54
2023/04/16 12:19:50;;;;;;;10.93;4.60;;;9.60;1.00;;;;;;5071722;28;20384;-54
2023/04/16 12:22:16;;;;;;;12.38;4.97;;;9.70;1.00;;;;;;5071002;28;20391;-54
2023/04/16 12:24:42;;;;;;;10.60;4.72;;;9.90;1.00;;;;;;5071829;28;20424;-54
2023/04/16 12:27:07;;;;;;;10.57;4.80;;;9.80;1.00;;;;;;5071719;28;20783;-54
2023/04/16 12:29:33;;;;;;;10.10;3.97;;;9.80;1.00;;;;;;5065088;28;20929;-54
2023/04/16 12:32:00;;;;;;;10.30;4.60;;;9.80;1.00;;;;;;5068637;28;20467;-54
2023/04/16 12:34:26;;;;;;;11.30;4.10;;;9.90;1.00;;;;;;5070617;28;20379;-54
2023/04/16 12:37:10;;;;;;;11.87;4.63;;;10.00;1.00;;;;;;5071080;28;20746;-54
2023/04/16 12:39:35;;;;;;;11.90;4.90;;;11.10;1.00;;;;;;5069539;28;21368;-54
2023/04/16 12:42:02;;;;;;;10.20;4.63;;;9.70;1.00;;;;;;5070843;28;20471;-54
2023/04/16 12:44:28;;;;;;;9.45;4.38;;;9.70;1.00;;;;;;5069785;28;20726;-54
2023/04/16 12:46:54;;;;;;;12.13;4.85;;;9.60;1.00;;;;;;5070877;28;20396;-54